sensor_id;sensor_type;location;lat;lon;timestamp;temperature;humidity
12847;DHT22;6492;48.128;8.320;2022-07-01T00:36:11;11.30;82.50
12847;DHT22;6492;48.128;8.320;2022-07-01T00:40:14;11.20;83.70
12847;DHT22;6492;48.128;8.320;2022-07-01T00:44:43;11.20;82.40
12847;DHT22;6492;48.128;8.320;2022-07-01T00:49:42;11.30;83.40
12847;DHT22;6492;48.128;8.320;2022-07-01T00:59:29;11.30;82.10
12847;DHT22;6492;48.128;8.320;2022-07-01T01:04:10;11.60;82.30
12847;DHT22;6492;48.128;8.320;2022-07-01T01:22:52;11.30;82.40
12847;DHT22;6492;48.128;8.320;2022-07-01T01:32:01;11.40;82.00
12847;DHT22;6492;48.128;8.320;2022-07-01T01:36:04;11.40;83.10
12847;DHT22;6492;48.128;8.320;2022-07-01T02:10:11;11.00;79.00
12847;DHT22;6492;48.128;8.320;2022-07-01T02:14:13;11.10;80.90
12847;DHT22;6492;48.128;8.320;2022-07-01T03:36:53;10.70;82.00
12847;DHT22;6492;48.128;8.320;2022-07-01T03:40:55;9.80;83.30
12847;DHT22;6492;48.128;8.320;2022-07-01T03:44:57;10.70;83.50
12847;DHT22;6492;48.128;8.320;2022-07-01T03:57:22;10.50;81.80
12847;DHT22;6492;48.128;8.320;2022-07-01T12:24:26;19.90;10.80
12847;DHT22;6492;48.128;8.320;2022-07-01T12:28:30;20.30;10.70
12847;DHT22;6492;48.128;8.320;2022-07-01T12:32:35;20.40;10.30
12847;DHT22;6492;48.128;8.320;2022-07-01T12:36:45;20.60;11.90
12847;DHT22;6492;48.128;8.320;2022-07-01T12:40:49;21.10;8.60
12847;DHT22;6492;48.128;8.320;2022-07-01T12:44:51;21.40;8.70
12847;DHT22;6492;48.128;8.320;2022-07-01T12:48:56;21.70;7.70
12847;DHT22;6492;48.128;8.320;2022-07-01T12:53:05;21.70;5.90
12847;DHT22;6492;48.128;8.320;2022-07-01T12:57:09;21.30;5.70
12847;DHT22;6492;48.128;8.320;2022-07-01T13:01:13;21.10;7.40
12847;DHT22;6492;48.128;8.320;2022-07-01T13:05:15;20.50;6.50
12847;DHT22;6492;48.128;8.320;2022-07-01T13:09:17;20.10;6.40
12847;DHT22;6492;48.128;8.320;2022-07-01T13:13:22;19.80;9.60
12847;DHT22;6492;48.128;8.320;2022-07-01T13:17:25;20.00;11.60
12847;DHT22;6492;48.128;8.320;2022-07-01T13:21:27;20.10;6.90
12847;DHT22;6492;48.128;8.320;2022-07-01T13:25:30;20.50;8.60
12847;DHT22;6492;48.128;8.320;2022-07-01T13:29:34;20.90;6.60
12847;DHT22;6492;48.128;8.320;2022-07-01T13:33:36;20.50;6.00
12847;DHT22;6492;48.128;8.320;2022-07-01T13:37:51;20.60;4.40
12847;DHT22;6492;48.128;8.320;2022-07-01T13:41:53;21.00;5.60
12847;DHT22;6492;48.128;8.320;2022-07-01T13:45:59;21.20;5.70
12847;DHT22;6492;48.128;8.320;2022-07-01T13:50:04;22.00;1.70
12847;DHT22;6492;48.128;8.320;2022-07-01T13:54:06;22.50;1.20
12847;DHT22;6492;48.128;8.320;2022-07-01T13:58:09;22.60;1.00
12847;DHT22;6492;48.128;8.320;2022-07-01T14:02:13;22.50;1.00
12847;DHT22;6492;48.128;8.320;2022-07-01T14:06:15;22.50;1.00
12847;DHT22;6492;48.128;8.320;2022-07-01T14:10:17;22.60;1.00
12847;DHT22;6492;48.128;8.320;2022-07-01T14:14:19;22.80;1.00
12847;DHT22;6492;48.128;8.320;2022-07-01T14:18:22;23.10;1.00
12847;DHT22;6492;48.128;8.320;2022-07-01T14:22:24;23.30;1.00
12847;DHT22;6492;48.128;8.320;2022-07-01T14:26:26;23.90;1.00
12847;DHT22;6492;48.128;8.320;2022-07-01T14:30:28;24.10;1.00
12847;DHT22;6492;48.128;8.320;2022-07-01T14:34:33;24.30;1.00
12847;DHT22;6492;48.128;8.320;2022-07-01T14:38:38;24.60;1.00
12847;DHT22;6492;48.128;8.320;2022-07-01T14:42:45;24.50;1.00
12847;DHT22;6492;48.128;8.320;2022-07-01T14:46:47;24.30;1.00
12847;DHT22;6492;48.128;8.320;2022-07-01T14:50:52;24.30;1.00
12847;DHT22;6492;48.128;8.320;2022-07-01T14:54:54;24.00;1.00
12847;DHT22;6492;48.128;8.320;2022-07-01T14:59:02;24.30;1.00
12847;DHT22;6492;48.128;8.320;2022-07-01T15:03:04;24.30;1.00
12847;DHT22;6492;48.128;8.320;2022-07-01T15:07:07;24.80;1.00
12847;DHT22;6492;48.128;8.320;2022-07-01T15:11:09;25.10;1.00
12847;DHT22;6492;48.128;8.320;2022-07-01T15:15:11;25.00;1.00
12847;DHT22;6492;48.128;8.320;2022-07-01T15:19:13;24.50;1.00
12847;DHT22;6492;48.128;8.320;2022-07-01T15:23:17;24.10;1.00
12847;DHT22;6492;48.128;8.320;2022-07-01T15:27:20;23.50;1.00
12847;DHT22;6492;48.128;8.320;2022-07-01T15:31:22;22.90;1.00
12847;DHT22;6492;48.128;8.320;2022-07-01T15:35:25;22.80;1.00
12847;DHT22;6492;48.128;8.320;2022-07-01T15:39:31;22.10;1.00
12847;DHT22;6492;48.128;8.320;2022-07-01T15:43:34;21.50;1.00
12847;DHT22;6492;48.128;8.320;2022-07-01T15:47:36;20.90;1.00
12847;DHT22;6492;48.128;8.320;2022-07-01T15:51:57;21.10;1.00
12847;DHT22;6492;48.128;8.320;2022-07-01T15:56:05;21.80;1.00
12847;DHT22;6492;48.128;8.320;2022-07-01T16:00:07;22.40;1.00
12847;DHT22;6492;48.128;8.320;2022-07-01T16:04:09;22.40;1.00
12847;DHT22;6492;48.128;8.320;2022-07-01T16:08:14;22.00;1.00
12847;DHT22;6492;48.128;8.320;2022-07-01T16:12:20;22.10;1.00
12847;DHT22;6492;48.128;8.320;2022-07-01T16:16:26;22.00;1.00
12847;DHT22;6492;48.128;8.320;2022-07-01T16:20:38;22.00;1.10
12847;DHT22;6492;48.128;8.320;2022-07-01T16:24:42;21.80;1.00
12847;DHT22;6492;48.128;8.320;2022-07-01T16:29:04;21.70;1.00
12847;DHT22;6492;48.128;8.320;2022-07-01T16:33:07;21.80;1.00
12847;DHT22;6492;48.128;8.320;2022-07-01T16:37:13;21.70;1.00
12847;DHT22;6492;48.128;8.320;2022-07-01T16:41:25;21.50;1.50
12847;DHT22;6492;48.128;8.320;2022-07-01T16:45:35;21.60;1.00
12847;DHT22;6492;48.128;8.320;2022-07-01T16:49:41;21.50;1.00
12847;DHT22;6492;48.128;8.320;2022-07-01T16:53:47;21.60;1.00
12847;DHT22;6492;48.128;8.320;2022-07-01T16:57:50;21.70;1.00
12847;DHT22;6492;48.128;8.320;2022-07-01T17:01:54;21.80;1.00
12847;DHT22;6492;48.128;8.320;2022-07-01T17:05:56;21.60;1.00
12847;DHT22;6492;48.128;8.320;2022-07-01T17:09:59;21.30;3.10
12847;DHT22;6492;48.128;8.320;2022-07-01T17:14:02;21.20;2.00
12847;DHT22;6492;48.128;8.320;2022-07-01T17:18:05;21.40;3.70
12847;DHT22;6492;48.128;8.320;2022-07-01T17:22:13;21.60;2.60
12847;DHT22;6492;48.128;8.320;2022-07-01T17:26:19;21.80;2.50
12847;DHT22;6492;48.128;8.320;2022-07-01T17:30:27;21.80;2.60
12847;DHT22;6492;48.128;8.320;2022-07-01T17:34:33;21.80;2.10
12847;DHT22;6492;48.128;8.320;2022-07-01T17:38:41;21.80;3.30
12847;DHT22;6492;48.128;8.320;2022-07-01T17:42:46;21.90;3.10
12847;DHT22;6492;48.128;8.320;2022-07-01T17:47:00;22.10;3.00
12847;DHT22;6492;48.128;8.320;2022-07-01T17:51:08;22.20;2.00
12847;DHT22;6492;48.128;8.320;2022-07-01T17:55:12;21.90;1.40
12847;DHT22;6492;48.128;8.320;2022-07-01T17:59:17;21.20;2.80
12847;DHT22;6492;48.128;8.320;2022-07-01T18:03:21;20.60;6.10
12847;DHT22;6492;48.128;8.320;2022-07-01T18:07:26;20.40;6.30
12847;DHT22;6492;48.128;8.320;2022-07-01T18:12:02;20.10;6.00
12847;DHT22;6492;48.128;8.320;2022-07-01T18:16:38;19.80;6.60
12847;DHT22;6492;48.128;8.320;2022-07-01T19:11:57;18.70;9.90
12847;DHT22;6492;48.128;8.320;2022-07-01T19:21:27;15.70;17.70
12847;DHT22;6492;48.128;8.320;2022-07-01T19:45:37;13.10;32.40
12847;DHT22;6492;48.128;8.320;2022-07-01T19:54:34;12.50;38.20
12847;DHT22;6492;48.128;8.320;2022-07-01T19:59:04;13.30;41.80
12847;DHT22;6492;48.128;8.320;2022-07-01T20:03:48;12.20;42.00
12847;DHT22;6492;48.128;8.320;2022-07-01T20:08:32;12.10;44.10
12847;DHT22;6492;48.128;8.320;2022-07-01T20:13:09;11.90;46.60
12847;DHT22;6492;48.128;8.320;2022-07-01T20:17:29;12.00;48.70
12847;DHT22;6492;48.128;8.320;2022-07-01T20:31:51;11.70;51.00
12847;DHT22;6492;48.128;8.320;2022-07-01T20:36:18;11.70;52.60
12847;DHT22;6492;48.128;8.320;2022-07-01T20:54:37;11.80;53.00
12847;DHT22;6492;48.128;8.320;2022-07-01T20:58:39;11.80;55.40
12847;DHT22;6492;48.128;8.320;2022-07-01T21:06:51;12.00;53.10
12847;DHT22;6492;48.128;8.320;2022-07-01T21:10:57;12.10;53.90
12847;DHT22;6492;48.128;8.320;2022-07-01T21:15:00;12.40;54.40
12847;DHT22;6492;48.128;8.320;2022-07-01T21:19:02;11.90;53.40
12847;DHT22;6492;48.128;8.320;2022-07-01T21:23:04;12.50;52.70
12847;DHT22;6492;48.128;8.320;2022-07-01T22:05:53;13.00;56.90
12847;DHT22;6492;48.128;8.320;2022-07-01T22:44:19;12.30;60.70
12847;DHT22;6492;48.128;8.320;2022-07-01T23:07:16;11.40;69.40
